createdAt,value
2018-09-23T00:01:38.269Z,13.53
2018-09-23T00:04:05.961Z,14.90
2018-09-23T00:06:33.541Z,16.30
2018-09-23T00:09:01.149Z,15.33
2018-09-23T00:11:28.807Z,15.63
2018-09-23T00:13:56.432Z,16.57
2018-09-23T00:16:24.033Z,15.00
2018-09-23T00:19:05.312Z,15.07
2018-09-23T00:21:33.041Z,15.77
2018-09-23T00:24:00.604Z,15.60
2018-09-23T00:26:28.198Z,16.80
2018-09-23T00:28:55.798Z,16.27
2018-09-23T00:31:23.384Z,16.87
2018-09-23T00:33:51.007Z,15.87
2018-09-23T00:36:18.734Z,17.37
2018-09-23T00:38:46.381Z,18.07
2018-09-23T00:41:13.990Z,18.87
2018-09-23T00:43:41.589Z,19.33
2018-09-23T00:46:09.148Z,19.93
2018-09-23T00:48:48.614Z,19.43
2018-09-23T00:51:16.175Z,20.63
2018-09-23T00:53:43.821Z,22.37
2018-09-23T00:56:11.441Z,21.80
2018-09-23T00:58:39.005Z,22.67
2018-09-23T01:01:06.697Z,22.43
2018-09-23T01:03:36.300Z,22.73
2018-09-23T01:06:03.893Z,22.67
2018-09-23T01:08:31.509Z,22.93
2018-09-23T01:10:59.104Z,22.73
2018-09-23T01:13:26.719Z,23.30
2018-09-23T01:15:54.313Z,23.77
2018-09-23T01:18:21.901Z,23.37
2018-09-23T01:20:49.522Z,23.77
2018-09-23T01:23:17.088Z,24.20
2018-09-23T01:25:44.697Z,23.87
2018-09-23T01:28:12.325Z,22.77
2018-09-23T01:30:39.933Z,24.40
2018-09-23T01:33:07.489Z,22.70
2018-09-23T01:35:35.121Z,21.33
2018-09-23T01:38:02.724Z,22.30
2018-09-23T01:40:30.292Z,25.17
2018-09-23T01:42:57.878Z,24.70
2018-09-23T01:45:25.430Z,23.43
2018-09-23T01:47:53.032Z,23.53
2018-09-23T01:50:20.611Z,22.93
2018-09-23T01:52:48.217Z,21.77
2018-09-23T01:55:15.760Z,20.57
2018-09-23T01:57:43.346Z,22.20
2018-09-23T02:00:10.981Z,21.80
2018-09-23T02:02:38.520Z,19.23
2018-09-23T02:05:06.160Z,20.63
2018-09-23T02:07:33.718Z,20.00
2018-09-23T02:10:01.294Z,19.53
2018-09-23T02:12:28.847Z,18.43
2018-09-23T02:14:56.442Z,20.10
2018-09-23T02:17:28.056Z,18.83
2018-09-23T02:19:56.661Z,18.43
2018-09-23T02:22:24.314Z,19.23
2018-09-23T02:24:51.910Z,18.47
2018-09-23T02:27:19.498Z,16.67
2018-09-23T02:29:47.057Z,16.83
2018-09-23T02:32:14.717Z,17.93
2018-09-23T02:34:42.300Z,16.90
2018-09-23T02:37:09.997Z,18.90
2018-09-23T02:39:37.594Z,16.90
2018-09-23T02:42:05.313Z,18.30
2018-09-23T02:44:32.902Z,17.23
2018-09-23T02:47:00.494Z,17.07
2018-09-23T02:49:34.799Z,16.57
2018-09-23T02:52:02.357Z,15.63
2018-09-23T02:54:29.904Z,17.70
2018-09-23T02:56:57.441Z,17.07
2018-09-23T02:59:25.021Z,15.53
2018-09-23T03:01:52.684Z,16.73
2018-09-23T03:04:20.248Z,18.10
2018-09-23T03:06:47.829Z,16.57
2018-09-23T03:09:15.431Z,16.60
2018-09-23T03:11:42.993Z,17.27
2018-09-23T03:14:10.554Z,17.67
2018-09-23T03:16:38.461Z,17.13
2018-09-23T03:19:06.097Z,16.77
2018-09-23T03:21:33.668Z,16.23
2018-09-23T03:24:01.249Z,17.20
2018-09-23T03:26:29.022Z,17.23
2018-09-23T03:28:56.597Z,16.83
2018-09-23T03:31:24.197Z,17.40
2018-09-23T03:33:51.772Z,16.17
2018-09-23T03:36:19.313Z,18.73
2018-09-23T03:38:46.954Z,18.20
2018-09-23T03:41:14.598Z,18.60
2018-09-23T03:43:42.152Z,16.07
2018-09-23T03:46:09.760Z,18.00
2018-09-23T03:48:37.363Z,19.40
2018-09-23T03:51:05.598Z,20.47
2018-09-23T03:53:33.166Z,19.27
2018-09-23T03:56:00.684Z,21.50
2018-09-23T03:58:28.349Z,19.90
2018-09-23T04:00:55.977Z,19.23
2018-09-23T04:03:24.132Z,18.67
2018-09-23T04:05:52.032Z,20.83
2018-09-23T04:08:20.233Z,20.67
2018-09-23T04:19:27.158Z,19.37
2018-09-23T04:21:54.750Z,19.73
2018-09-23T04:24:22.304Z,20.87
2018-09-23T04:26:49.882Z,20.63
2018-09-23T04:29:17.448Z,21.47
2018-09-23T04:31:45.001Z,20.23
2018-09-23T04:34:12.634Z,20.50
2018-09-23T04:36:40.193Z,20.67
2018-09-23T04:39:09.181Z,21.07
2018-09-23T04:41:37.021Z,19.97
2018-09-23T04:44:04.649Z,19.23
2018-09-23T04:46:32.261Z,20.10
2018-09-23T04:48:59.843Z,19.43
2018-09-23T04:51:27.427Z,21.00
2018-09-23T04:53:54.989Z,23.10
2018-09-23T04:56:22.529Z,22.77
2018-09-23T04:58:50.184Z,24.47
2018-09-23T05:01:17.801Z,24.60
2018-09-23T05:03:45.405Z,21.83
2018-09-23T05:06:12.945Z,23.27
2018-09-23T05:08:40.557Z,24.00
2018-09-23T05:11:08.225Z,25.73
2018-09-23T05:13:35.838Z,23.17
2018-09-23T05:16:03.455Z,23.57
2018-09-23T05:18:31.020Z,23.43
2018-09-23T05:20:58.600Z,24.47
2018-09-23T05:23:26.157Z,22.47
2018-09-23T05:25:53.721Z,23.13
2018-09-23T05:28:21.324Z,24.13
2018-09-23T05:30:48.915Z,26.13
2018-09-23T05:33:16.448Z,26.60
2018-09-23T05:35:44.077Z,29.10
2018-09-23T05:38:11.657Z,28.13
2018-09-23T05:40:39.241Z,28.13
2018-09-23T05:43:06.793Z,28.80
2018-09-23T05:45:34.590Z,27.57
2018-09-23T05:48:02.129Z,28.57
2018-09-23T05:50:29.723Z,29.17
2018-09-23T05:52:57.320Z,29.20
2018-09-23T05:55:24.905Z,27.00
2018-09-23T05:57:52.485Z,26.10
2018-09-23T06:00:20.189Z,27.43
2018-09-23T06:02:47.814Z,26.97
2018-09-23T06:05:15.375Z,27.10
2018-09-23T06:07:42.946Z,26.20
2018-09-23T06:10:10.568Z,25.47
2018-09-23T06:12:38.266Z,25.43
2018-09-23T06:15:05.850Z,28.50
2018-09-23T06:17:33.520Z,27.63
2018-09-23T06:20:01.085Z,26.93
2018-09-23T06:22:28.641Z,25.97
2018-09-23T06:24:56.276Z,25.43
2018-09-23T06:27:23.854Z,24.80
2018-09-23T06:29:51.472Z,24.83
2018-09-23T06:32:19.159Z,24.80
2018-09-23T06:34:46.761Z,20.83
2018-09-23T06:37:14.746Z,22.70
2018-09-23T06:39:42.338Z,22.00
2018-09-23T06:42:10.197Z,22.10
2018-09-23T06:44:37.793Z,21.30
2018-09-23T06:47:05.597Z,22.23
2018-09-23T06:49:33.213Z,21.53
2018-09-23T06:52:00.932Z,21.13
2018-09-23T06:54:28.705Z,23.30
2018-09-23T06:56:56.397Z,20.73
2018-09-23T06:59:24.073Z,21.40
2018-09-23T07:01:51.655Z,19.73
2018-09-23T07:04:19.324Z,21.70
2018-09-23T07:06:46.886Z,21.03
2018-09-23T07:09:15.546Z,20.93
2018-09-23T07:11:43.169Z,23.30
2018-09-23T07:14:10.885Z,20.77
2018-09-23T07:16:38.624Z,21.20
2018-09-23T07:19:06.380Z,21.97
2018-09-23T07:21:33.957Z,19.17
2018-09-23T07:24:02.307Z,20.20
2018-09-23T07:26:29.901Z,19.47
2018-09-23T07:28:57.518Z,21.47
2018-09-23T07:31:26.106Z,20.30
2018-09-23T07:33:53.749Z,20.80
2018-09-23T07:36:21.320Z,19.67
2018-09-23T07:38:48.851Z,19.70
2018-09-23T07:41:16.340Z,21.87
2018-09-23T07:43:43.809Z,19.80
2018-09-23T07:46:11.329Z,17.93
2018-09-23T07:48:38.790Z,17.70
2018-09-23T07:51:06.299Z,17.70
2018-09-23T07:53:33.754Z,15.97
2018-09-23T07:56:01.359Z,16.47
2018-09-23T07:58:28.797Z,16.10
2018-09-23T08:00:56.290Z,14.97
2018-09-23T08:03:23.925Z,15.80
2018-09-23T08:05:51.346Z,15.47
2018-09-23T08:08:18.842Z,14.77
2018-09-23T08:10:46.440Z,13.93
2018-09-23T08:13:14.076Z,15.17
2018-09-23T08:15:41.508Z,15.33
2018-09-23T08:18:09.104Z,14.53
2018-09-23T08:20:36.665Z,13.20
2018-09-23T08:23:04.108Z,13.83
2018-09-23T08:25:31.601Z,13.93
2018-09-23T08:27:59.062Z,14.70
2018-09-23T08:30:26.552Z,15.43
2018-09-23T08:32:54.085Z,13.80
2018-09-23T08:35:21.648Z,12.70
2018-09-23T08:37:49.130Z,14.57
2018-09-23T08:40:16.621Z,14.27
2018-09-23T08:42:44.173Z,12.80
2018-09-23T08:45:11.622Z,12.27
2018-09-23T08:47:39.094Z,14.13
2018-09-23T08:50:06.595Z,13.73
2018-09-23T08:52:34.052Z,16.50
2018-09-23T08:55:01.576Z,18.13
2018-09-23T08:57:29.019Z,16.90
2018-09-23T08:59:56.481Z,17.80
2018-09-23T09:02:24.010Z,16.50
2018-09-23T09:04:51.515Z,17.37
2018-09-23T09:07:18.960Z,15.07
2018-09-23T09:09:46.532Z,16.17
2018-09-23T09:12:13.990Z,16.33
2018-09-23T09:14:41.477Z,15.83
2018-09-23T09:17:08.968Z,15.60
2018-09-23T09:19:36.469Z,16.90
2018-09-23T09:22:03.961Z,17.27
2018-09-23T09:24:31.474Z,17.10
2018-09-23T09:26:58.994Z,17.03
2018-09-23T09:29:26.464Z,20.17
2018-09-23T09:31:53.967Z,20.73
2018-09-23T09:34:21.410Z,19.93
2018-09-23T09:36:48.889Z,20.50
2018-09-23T09:39:16.363Z,22.73
2018-09-23T09:41:43.931Z,22.07
2018-09-23T09:44:11.583Z,21.17
2018-09-23T09:46:39.028Z,21.60
2018-09-23T09:49:06.481Z,21.80
2018-09-23T09:51:34.054Z,21.33
2018-09-23T09:54:01.576Z,22.83
2018-09-23T09:56:29.126Z,22.60
2018-09-23T09:58:56.652Z,24.03
2018-09-23T10:01:24.156Z,23.67
2018-09-23T10:03:51.710Z,24.80
2018-09-23T10:06:20.278Z,25.33
2018-09-23T10:08:47.761Z,25.07
2018-09-23T10:11:15.254Z,25.97
2018-09-23T10:13:42.760Z,27.17
2018-09-23T10:16:10.266Z,27.63
2018-09-23T10:18:37.722Z,28.47
2018-09-23T10:21:05.225Z,29.50
2018-09-23T10:23:32.773Z,29.93
2018-09-23T10:26:00.271Z,31.87
2018-09-23T10:28:27.803Z,30.83
2018-09-23T10:30:55.374Z,30.63
2018-09-23T10:33:22.816Z,31.80
2018-09-23T10:35:50.308Z,31.43
2018-09-23T10:38:29.806Z,29.90
2018-09-23T10:40:57.261Z,28.10
2018-09-23T10:43:24.732Z,22.27
2018-09-23T10:45:52.198Z,19.03
2018-09-23T10:48:19.742Z,18.30
2018-09-23T10:50:47.232Z,20.73
2018-09-23T10:53:14.826Z,17.43
2018-09-23T10:55:42.367Z,19.37
2018-09-23T10:58:09.880Z,17.13
2018-09-23T11:00:37.369Z,16.87
2018-09-23T11:03:04.847Z,17.30
2018-09-23T11:05:32.388Z,19.17
2018-09-23T11:07:59.898Z,19.07
2018-09-23T11:10:33.658Z,20.77
2018-09-23T11:13:01.184Z,17.27
2018-09-23T11:15:28.781Z,19.90
2018-09-23T11:18:04.260Z,18.47
2018-09-23T11:20:31.982Z,17.10
2018-09-23T11:22:59.510Z,21.30
2018-09-23T11:25:27.010Z,16.60
2018-09-23T11:27:56.518Z,18.17
2018-09-23T11:30:30.380Z,14.73
2018-09-23T11:32:57.886Z,18.47
2018-09-23T11:35:25.396Z,19.00
2018-09-23T11:37:53.114Z,13.53
2018-09-23T11:40:20.583Z,23.37
2018-09-23T11:42:48.964Z,13.77
2018-09-23T11:45:16.486Z,13.77
2018-09-23T11:47:44.139Z,11.37
2018-09-23T11:50:18.604Z,12.20
2018-09-23T11:52:50.618Z,13.83
2018-09-23T11:55:18.157Z,14.27
2018-09-23T11:57:51.545Z,14.77
2018-09-23T12:00:19.215Z,13.03
2018-09-23T12:02:46.887Z,16.60
2018-09-23T12:05:14.666Z,15.47
2018-09-23T12:07:42.320Z,18.67
2018-09-23T12:10:09.864Z,23.23
2018-09-23T12:12:37.384Z,18.53
2018-09-23T12:15:04.928Z,15.43
2018-09-23T12:17:32.507Z,17.33
2018-09-23T12:20:00.182Z,16.50
2018-09-23T12:22:30.985Z,20.27
2018-09-23T12:24:58.613Z,18.63
2018-09-23T12:27:26.213Z,19.43
2018-09-23T12:29:53.973Z,21.23
2018-09-23T12:32:21.518Z,23.17
2018-09-23T12:34:49.312Z,28.30
2018-09-23T12:37:16.890Z,29.37
2018-09-23T12:39:44.517Z,45.47
2018-09-23T12:42:12.181Z,28.47
2018-09-23T12:44:39.662Z,24.17
2018-09-23T12:47:07.333Z,27.90
2018-09-23T12:49:35.468Z,28.20
2018-09-23T12:52:02.997Z,29.47
2018-09-23T12:54:31.025Z,26.97
2018-09-23T12:56:58.696Z,25.93
2018-09-23T12:59:29.681Z,27.27
2018-09-23T13:01:57.185Z,27.83
2018-09-23T13:04:24.949Z,24.10
2018-09-23T13:06:52.497Z,25.47
2018-09-23T13:09:19.984Z,29.30
2018-09-23T13:11:47.480Z,26.43
2018-09-23T13:14:15.045Z,22.20
2018-09-23T13:16:43.000Z,25.50
2018-09-23T13:19:11.057Z,30.83
2018-09-23T13:21:39.327Z,28.77
2018-09-23T13:24:07.099Z,21.93
2018-09-23T13:26:34.776Z,24.73
2018-09-23T13:29:02.830Z,23.47
2018-09-23T13:31:30.363Z,20.17
2018-09-23T13:33:58.087Z,18.67
2018-09-23T13:36:25.697Z,19.43
2018-09-23T13:38:53.360Z,15.63
2018-09-23T13:41:21.650Z,16.40
2018-09-23T13:43:49.272Z,15.43
2018-09-23T13:46:16.974Z,18.00
2018-09-23T13:48:45.474Z,19.57
2018-09-23T13:51:13.173Z,14.37
2018-09-23T13:53:41.762Z,13.40
2018-09-23T13:56:09.430Z,24.00
2018-09-23T13:58:37.071Z,18.57
2018-09-23T14:01:04.728Z,18.70
2018-09-23T14:03:32.501Z,24.23
2018-09-23T14:06:01.100Z,14.87
2018-09-23T14:08:28.808Z,17.47
2018-09-23T14:10:57.303Z,22.00
2018-09-23T14:13:25.000Z,18.67
2018-09-23T14:15:52.962Z,27.67
2018-09-23T14:18:20.576Z,20.17
2018-09-23T14:20:48.176Z,24.53
2018-09-23T14:23:15.870Z,19.00
2018-09-23T14:25:43.574Z,32.63
2018-09-23T14:28:12.542Z,25.97
2018-09-23T14:30:40.768Z,22.80
2018-09-23T14:33:08.466Z,16.33
2018-09-23T14:35:36.132Z,23.73
2018-09-23T14:38:04.113Z,13.87
2018-09-23T14:40:32.431Z,13.67
2018-09-23T14:43:00.070Z,19.03
2018-09-23T14:45:40.981Z,14.70
2018-09-23T14:48:09.026Z,16.80
2018-09-23T14:50:36.692Z,21.30
2018-09-23T14:53:04.349Z,14.20
2018-09-23T14:55:32.065Z,13.03
2018-09-23T14:57:59.665Z,15.60
2018-09-23T15:00:28.168Z,17.63
2018-09-23T15:02:55.925Z,17.53
2018-09-23T15:05:23.973Z,19.47
2018-09-23T15:07:51.583Z,22.07
2018-09-23T15:10:19.213Z,17.60
2018-09-23T15:12:46.806Z,21.03
2018-09-23T15:15:14.568Z,21.30
2018-09-23T15:17:42.367Z,15.57
2018-09-23T15:20:10.273Z,14.63
2018-09-23T15:22:37.877Z,14.27
2018-09-23T15:25:05.654Z,16.47
2018-09-23T15:27:33.458Z,13.53
2018-09-23T15:30:01.077Z,18.27
2018-09-23T15:32:28.818Z,16.40
2018-09-23T15:34:56.523Z,16.00
2018-09-23T15:37:24.389Z,12.57
2018-09-23T15:39:52.057Z,11.40
2018-09-23T15:42:19.890Z,10.80
2018-09-23T15:44:47.526Z,11.67
2018-09-23T15:47:16.050Z,12.57
2018-09-23T15:49:43.972Z,13.20
2018-09-23T15:52:11.697Z,8.13
2018-09-23T15:54:39.258Z,8.67
2018-09-23T15:57:07.096Z,7.57
2018-09-23T15:59:36.098Z,8.53
2018-09-23T16:02:04.731Z,7.37
2018-09-23T16:04:32.458Z,7.83
2018-09-23T16:07:00.084Z,6.57
2018-09-23T16:09:27.980Z,6.77
2018-09-23T16:11:55.602Z,6.20
2018-09-23T16:14:24.115Z,6.17
2018-09-23T16:16:51.798Z,7.50
2018-09-23T16:19:23.116Z,7.87
2018-09-23T16:21:51.136Z,8.83
2018-09-23T16:24:18.791Z,10.00
2018-09-23T16:26:46.370Z,9.40
2018-09-23T16:29:14.118Z,10.00
2018-09-23T16:31:41.757Z,8.07
2018-09-23T16:34:09.402Z,9.33
2018-09-23T16:36:37.229Z,10.30
2018-09-23T16:39:19.281Z,7.97
2018-09-23T16:41:52.473Z,6.93
2018-09-23T16:44:20.133Z,6.63
2018-09-23T16:46:47.820Z,5.30
2018-09-23T16:49:15.699Z,6.40
2018-09-23T16:51:43.477Z,5.03
2018-09-23T16:54:11.168Z,5.33
2018-09-23T16:56:38.834Z,7.43
2018-09-23T16:59:06.713Z,6.40
2018-09-23T17:01:34.644Z,9.00
2018-09-23T17:04:02.290Z,12.17
2018-09-23T17:06:29.921Z,13.27
2018-09-23T17:08:57.581Z,16.17
2018-09-23T17:11:25.256Z,21.63
2018-09-23T17:13:52.951Z,28.00
2018-09-23T17:16:20.672Z,23.20
2018-09-23T17:18:48.319Z,17.30
2018-09-23T17:21:15.962Z,11.30
2018-09-23T17:23:43.680Z,7.43
2018-09-23T17:26:20.451Z,9.50
2018-09-23T17:28:48.126Z,10.13
2018-09-23T17:31:15.699Z,7.90
2018-09-23T17:33:43.309Z,7.90
2018-09-23T17:36:10.961Z,8.33
2018-09-23T17:38:38.829Z,6.10
2018-09-23T17:41:06.892Z,5.40
2018-09-23T17:43:34.677Z,8.93
2018-09-23T17:46:02.333Z,9.67
2018-09-23T17:48:30.056Z,7.93
2018-09-23T17:50:57.677Z,6.57
2018-09-23T17:53:25.794Z,6.17
2018-09-23T17:55:53.391Z,6.77
2018-09-23T17:58:21.329Z,8.33
2018-09-23T18:00:49.053Z,7.93
2018-09-23T18:03:20.615Z,9.07
2018-09-23T18:05:48.284Z,15.63
2018-09-23T18:08:16.041Z,12.13
2018-09-23T18:10:43.786Z,9.50
2018-09-23T18:13:11.597Z,8.37
2018-09-23T18:15:39.393Z,7.80
2018-09-23T18:18:07.227Z,8.27
2018-09-23T18:20:34.984Z,9.60
2018-09-23T18:23:02.598Z,10.90
2018-09-23T18:25:30.525Z,14.50
2018-09-23T18:27:58.454Z,11.87
2018-09-23T18:30:26.137Z,12.47
2018-09-23T18:32:53.944Z,9.97
2018-09-23T18:35:21.843Z,12.70
2018-09-23T18:37:49.482Z,9.63
2018-09-23T18:40:17.360Z,11.03
2018-09-23T18:42:45.171Z,13.50
2018-09-23T18:45:13.066Z,23.90
2018-09-23T18:47:40.816Z,10.63
2018-09-23T18:50:08.686Z,7.63
2018-09-23T18:52:36.355Z,10.57
2018-09-23T18:55:09.906Z,6.10
2018-09-23T18:57:37.550Z,12.03
2018-09-23T19:00:05.760Z,9.20
2018-09-23T19:02:33.538Z,9.83
2018-09-23T19:05:01.382Z,24.47
2018-09-23T19:07:29.000Z,17.13
2018-09-23T19:09:56.823Z,23.37
2018-09-23T19:12:24.630Z,17.10
2018-09-23T19:14:52.750Z,11.80
2018-09-23T19:17:20.641Z,10.40
2018-09-23T19:19:54.235Z,16.10
2018-09-23T19:22:27.609Z,5.17
2018-09-23T19:24:55.266Z,23.00
2018-09-23T19:27:23.260Z,12.37
2018-09-23T19:29:51.114Z,9.33
2018-09-23T19:32:22.691Z,8.47
2018-09-23T19:34:51.097Z,6.50
2018-09-23T19:37:18.798Z,9.47
2018-09-23T19:39:46.538Z,10.03
2018-09-23T19:42:14.254Z,6.90
2018-09-23T19:44:44.386Z,7.03
2018-09-23T19:47:14.040Z,7.80
2018-09-23T19:49:41.653Z,12.60
2018-09-23T19:52:09.323Z,7.20
2018-09-23T19:54:36.994Z,5.50
2018-09-23T19:57:04.748Z,9.07
2018-09-23T19:59:32.339Z,7.60
2018-09-23T20:02:11.065Z,6.90
2018-09-23T20:07:41.640Z,6.60
2018-09-23T20:10:10.821Z,6.73
2018-09-23T20:12:39.428Z,7.73
2018-09-23T20:15:44.970Z,7.53
2018-09-23T20:18:41.662Z,9.00
2018-09-23T20:21:09.358Z,8.60
2018-09-23T20:23:37.337Z,9.07
2018-09-23T20:26:05.386Z,13.17
2018-09-23T20:28:33.099Z,9.93
2018-09-23T20:31:00.696Z,12.20
2018-09-23T20:33:28.291Z,14.47
2018-09-23T20:35:55.919Z,26.60
2018-09-23T20:38:23.601Z,15.67
2018-09-23T20:40:51.178Z,10.63
2018-09-23T20:43:18.808Z,10.20
2018-09-23T20:45:46.474Z,12.70
2018-09-23T20:48:14.073Z,12.07
2018-09-23T20:50:41.639Z,15.00
2018-09-23T20:53:09.279Z,11.10
2018-09-23T20:55:36.891Z,11.10
2018-09-23T20:58:05.135Z,12.30
2018-09-23T21:00:33.014Z,16.00
2018-09-23T21:03:00.618Z,11.93
2018-09-23T21:05:28.425Z,13.53
2018-09-23T21:07:56.046Z,15.07
2018-09-23T21:10:23.820Z,12.17
2018-09-23T21:12:51.385Z,17.93
2018-09-23T21:15:19.012Z,17.43
2018-09-23T21:17:46.694Z,14.30
2018-09-23T21:20:14.327Z,19.93
2018-09-23T21:22:41.937Z,22.37
2018-09-23T21:25:10.369Z,15.30
2018-09-23T21:27:38.015Z,21.37
2018-09-23T21:30:05.662Z,15.37
2018-09-23T21:32:33.482Z,14.30
2018-09-23T21:35:01.151Z,16.47
2018-09-23T21:37:28.786Z,13.30
2018-09-23T21:39:56.407Z,15.87
2018-09-23T21:42:24.144Z,16.67
2018-09-23T21:44:51.738Z,16.27
2018-09-23T21:47:19.309Z,18.20
2018-09-23T21:49:46.896Z,19.93
2018-09-23T21:52:16.734Z,18.70
2018-09-23T21:54:44.352Z,19.77
2018-09-23T21:57:11.950Z,21.33
2018-09-23T21:59:40.025Z,20.80
2018-09-23T22:02:07.669Z,19.93
2018-09-23T22:04:35.293Z,20.43
2018-09-23T22:07:02.910Z,20.30
2018-09-23T22:09:37.283Z,22.00
2018-09-23T22:12:05.069Z,22.83
2018-09-23T22:14:32.710Z,22.77
2018-09-23T22:17:00.268Z,19.90
2018-09-23T22:19:27.894Z,20.90
2018-09-23T22:21:55.482Z,22.13
2018-09-23T22:24:23.056Z,23.30
2018-09-23T22:26:50.710Z,19.80
2018-09-23T22:29:18.403Z,21.93
2018-09-23T22:31:46.164Z,24.07
2018-09-23T22:34:13.801Z,22.80
2018-09-23T22:36:41.453Z,23.80
2018-09-23T22:39:09.081Z,23.80
2018-09-23T22:41:36.673Z,22.83
2018-09-23T22:44:04.274Z,24.97
2018-09-23T22:46:40.266Z,25.53
2018-09-23T22:49:07.874Z,22.77
2018-09-23T22:51:35.481Z,21.27
2018-09-23T22:54:03.065Z,20.80
2018-09-23T22:56:30.728Z,22.53
2018-09-23T22:59:10.881Z,20.73
2018-09-23T23:01:38.695Z,21.00
2018-09-23T23:04:06.281Z,19.47
2018-09-23T23:06:33.869Z,18.37
2018-09-23T23:09:01.450Z,19.63
2018-09-23T23:11:29.034Z,20.83
2018-09-23T23:13:56.570Z,16.07
2018-09-23T23:16:24.146Z,16.10
2018-09-23T23:18:51.967Z,16.17
2018-09-23T23:21:21.638Z,17.03
2018-09-23T23:23:49.210Z,14.60
2018-09-23T23:26:16.759Z,18.00
2018-09-23T23:28:44.378Z,14.37
2018-09-23T23:31:11.984Z,15.47
2018-09-23T23:33:39.569Z,15.67
2018-09-23T23:36:07.145Z,13.73
2018-09-23T23:38:34.704Z,26.97
2018-09-23T23:41:02.302Z,13.97
2018-09-23T23:43:29.876Z,27.77
2018-09-23T23:45:57.518Z,11.07
2018-09-23T23:48:25.050Z,14.50
2018-09-23T23:50:52.626Z,11.57
2018-09-23T23:53:20.211Z,13.10
2018-09-23T23:55:47.778Z,13.37
2018-09-23T23:58:15.413Z,10.83
